sensor_id;sensor_type;location;lat;lon;timestamp;temperature;humidity
12604;DHT22;6367;52.508;13.284;2023-02-21T00:02:16;12.20;99.90
12604;DHT22;6367;52.508;13.284;2023-02-21T00:05:00;12.30;99.90
12604;DHT22;6367;52.508;13.284;2023-02-21T00:07:45;12.30;99.90
12604;DHT22;6367;52.508;13.284;2023-02-21T00:10:29;12.20;99.90
12604;DHT22;6367;52.508;13.284;2023-02-21T00:13:13;12.20;99.90
12604;DHT22;6367;52.508;13.284;2023-02-21T00:15:57;12.30;99.90
12604;DHT22;6367;52.508;13.284;2023-02-21T00:18:41;12.20;99.90
12604;DHT22;6367;52.508;13.284;2023-02-21T00:21:29;12.20;99.90
12604;DHT22;6367;52.508;13.284;2023-02-21T00:24:16;12.20;99.90
12604;DHT22;6367;52.508;13.284;2023-02-21T00:27:01;12.30;99.90
12604;DHT22;6367;52.508;13.284;2023-02-21T00:29:50;12.30;99.90
12604;DHT22;6367;52.508;13.284;2023-02-21T00:32:34;12.20;99.90
12604;DHT22;6367;52.508;13.284;2023-02-21T00:35:19;12.20;99.90
12604;DHT22;6367;52.508;13.284;2023-02-21T00:38:03;12.30;99.90
12604;DHT22;6367;52.508;13.284;2023-02-21T00:40:47;12.30;99.90
12604;DHT22;6367;52.508;13.284;2023-02-21T00:43:33;12.30;99.90
12604;DHT22;6367;52.508;13.284;2023-02-21T00:46:19;12.20;99.90
12604;DHT22;6367;52.508;13.284;2023-02-21T00:49:04;12.20;99.90
12604;DHT22;6367;52.508;13.284;2023-02-21T00:51:48;12.20;99.90
12604;DHT22;6367;52.508;13.284;2023-02-21T00:54:32;12.30;99.90
12604;DHT22;6367;52.508;13.284;2023-02-21T00:57:23;12.30;99.90
12604;DHT22;6367;52.508;13.284;2023-02-21T01:00:13;12.20;99.90
12604;DHT22;6367;52.508;13.284;2023-02-21T01:02:57;12.30;99.90
12604;DHT22;6367;52.508;13.284;2023-02-21T01:05:41;12.20;99.90
12604;DHT22;6367;52.508;13.284;2023-02-21T01:08:25;12.20;99.90
12604;DHT22;6367;52.508;13.284;2023-02-21T01:11:17;12.20;99.90
12604;DHT22;6367;52.508;13.284;2023-02-21T01:14:01;12.20;99.90
12604;DHT22;6367;52.508;13.284;2023-02-21T01:16:46;12.20;99.90
12604;DHT22;6367;52.508;13.284;2023-02-21T01:19:30;12.30;99.90
12604;DHT22;6367;52.508;13.284;2023-02-21T01:22:14;12.20;99.90
12604;DHT22;6367;52.508;13.284;2023-02-21T01:24:58;12.30;99.90
12604;DHT22;6367;52.508;13.284;2023-02-21T01:27:43;12.30;99.90
12604;DHT22;6367;52.508;13.284;2023-02-21T01:30:27;12.30;99.90
12604;DHT22;6367;52.508;13.284;2023-02-21T01:33:11;12.30;99.90
12604;DHT22;6367;52.508;13.284;2023-02-21T01:35:55;12.30;99.90
12604;DHT22;6367;52.508;13.284;2023-02-21T01:38:40;12.30;99.90
12604;DHT22;6367;52.508;13.284;2023-02-21T01:41:24;12.30;99.90
12604;DHT22;6367;52.508;13.284;2023-02-21T01:44:30;12.30;99.90
12604;DHT22;6367;52.508;13.284;2023-02-21T01:47:15;12.30;99.90
12604;DHT22;6367;52.508;13.284;2023-02-21T01:50:01;12.30;99.90
12604;DHT22;6367;52.508;13.284;2023-02-21T01:52:48;12.30;99.90
12604;DHT22;6367;52.508;13.284;2023-02-21T01:55:34;12.20;99.90
12604;DHT22;6367;52.508;13.284;2023-02-21T01:58:21;12.30;99.90
12604;DHT22;6367;52.508;13.284;2023-02-21T02:01:09;12.30;99.90
12604;DHT22;6367;52.508;13.284;2023-02-21T02:03:56;12.30;99.90
12604;DHT22;6367;52.508;13.284;2023-02-21T02:06:40;12.30;99.90
12604;DHT22;6367;52.508;13.284;2023-02-21T02:09:24;12.30;99.90
12604;DHT22;6367;52.508;13.284;2023-02-21T02:32:13;12.40;99.90
12604;DHT22;6367;52.508;13.284;2023-02-21T02:40:17;12.50;99.90
12604;DHT22;6367;52.508;13.284;2023-02-21T02:46:03;12.60;99.90
12604;DHT22;6367;52.508;13.284;2023-02-21T02:48:54;12.50;99.90
12604;DHT22;6367;52.508;13.284;2023-02-21T02:51:22;12.60;99.90
12604;DHT22;6367;52.508;13.284;2023-02-21T02:53:49;12.60;99.90
12604;DHT22;6367;52.508;13.284;2023-02-21T02:56:15;12.60;99.90
12604;DHT22;6367;52.508;13.284;2023-02-21T02:59:10;12.70;99.90
12604;DHT22;6367;52.508;13.284;2023-02-21T03:07:27;12.60;99.90
12604;DHT22;6367;52.508;13.284;2023-02-21T03:10:20;12.60;99.90
12604;DHT22;6367;52.508;13.284;2023-02-21T03:13:01;12.60;99.90
12604;DHT22;6367;52.508;13.284;2023-02-21T03:15:46;12.60;99.90
12604;DHT22;6367;52.508;13.284;2023-02-21T03:18:26;12.60;99.90
12604;DHT22;6367;52.508;13.284;2023-02-21T03:20:58;12.70;99.90
12604;DHT22;6367;52.508;13.284;2023-02-21T03:23:27;12.70;99.90
12604;DHT22;6367;52.508;13.284;2023-02-21T03:25:59;12.80;99.90
12604;DHT22;6367;52.508;13.284;2023-02-21T03:28:28;12.80;99.90
12604;DHT22;6367;52.508;13.284;2023-02-21T03:30:55;12.80;99.90
12604;DHT22;6367;52.508;13.284;2023-02-21T03:33:22;12.70;99.90
12604;DHT22;6367;52.508;13.284;2023-02-21T03:35:48;12.80;99.90
12604;DHT22;6367;52.508;13.284;2023-02-21T03:38:14;12.80;99.90
12604;DHT22;6367;52.508;13.284;2023-02-21T03:40:40;12.80;99.90
12604;DHT22;6367;52.508;13.284;2023-02-21T03:43:06;12.80;99.90
12604;DHT22;6367;52.508;13.284;2023-02-21T03:45:33;12.70;99.90
12604;DHT22;6367;52.508;13.284;2023-02-21T03:47:59;12.80;99.90
12604;DHT22;6367;52.508;13.284;2023-02-21T03:50:25;12.80;99.90
12604;DHT22;6367;52.508;13.284;2023-02-21T03:52:50;12.90;99.90
12604;DHT22;6367;52.508;13.284;2023-02-21T03:55:16;12.90;99.90
12604;DHT22;6367;52.508;13.284;2023-02-21T03:57:42;12.90;99.90
12604;DHT22;6367;52.508;13.284;2023-02-21T04:00:08;13.00;99.90
12604;DHT22;6367;52.508;13.284;2023-02-21T04:02:34;13.00;99.90
12604;DHT22;6367;52.508;13.284;2023-02-21T04:05:00;13.00;99.90
12604;DHT22;6367;52.508;13.284;2023-02-21T04:07:26;13.00;99.90
12604;DHT22;6367;52.508;13.284;2023-02-21T04:09:52;12.90;99.90
12604;DHT22;6367;52.508;13.284;2023-02-21T04:12:18;12.90;99.90
12604;DHT22;6367;52.508;13.284;2023-02-21T04:14:43;13.00;99.90
12604;DHT22;6367;52.508;13.284;2023-02-21T04:17:09;13.10;99.90
12604;DHT22;6367;52.508;13.284;2023-02-21T04:19:35;13.10;99.90
12604;DHT22;6367;52.508;13.284;2023-02-21T04:22:01;13.10;99.90
12604;DHT22;6367;52.508;13.284;2023-02-21T04:24:27;13.10;99.90
12604;DHT22;6367;52.508;13.284;2023-02-21T04:26:53;13.00;99.90
12604;DHT22;6367;52.508;13.284;2023-02-21T04:29:19;13.00;99.90
12604;DHT22;6367;52.508;13.284;2023-02-21T04:31:44;13.10;99.90
12604;DHT22;6367;52.508;13.284;2023-02-21T04:34:10;13.10;99.90
12604;DHT22;6367;52.508;13.284;2023-02-21T04:36:36;13.10;99.90
12604;DHT22;6367;52.508;13.284;2023-02-21T04:39:03;13.10;99.90
12604;DHT22;6367;52.508;13.284;2023-02-21T04:41:29;13.20;99.90
12604;DHT22;6367;52.508;13.284;2023-02-21T04:43:54;13.20;99.90
12604;DHT22;6367;52.508;13.284;2023-02-21T04:46:20;13.20;99.90
12604;DHT22;6367;52.508;13.284;2023-02-21T04:48:48;13.20;99.90
12604;DHT22;6367;52.508;13.284;2023-02-21T04:51:15;13.20;99.90
12604;DHT22;6367;52.508;13.284;2023-02-21T04:53:42;13.20;99.90
12604;DHT22;6367;52.508;13.284;2023-02-21T04:56:08;13.20;99.90
12604;DHT22;6367;52.508;13.284;2023-02-21T04:58:34;13.10;99.90
12604;DHT22;6367;52.508;13.284;2023-02-21T05:00:59;13.20;99.90
12604;DHT22;6367;52.508;13.284;2023-02-21T05:03:25;13.20;99.90
12604;DHT22;6367;52.508;13.284;2023-02-21T05:05:51;13.00;99.90
12604;DHT22;6367;52.508;13.284;2023-02-21T05:08:16;13.00;99.90
12604;DHT22;6367;52.508;13.284;2023-02-21T05:10:42;13.00;99.90
12604;DHT22;6367;52.508;13.284;2023-02-21T05:13:08;13.00;99.90
12604;DHT22;6367;52.508;13.284;2023-02-21T05:15:33;13.00;99.90
12604;DHT22;6367;52.508;13.284;2023-02-21T05:17:59;13.00;99.90
12604;DHT22;6367;52.508;13.284;2023-02-21T05:20:25;12.90;99.90
12604;DHT22;6367;52.508;13.284;2023-02-21T05:22:50;12.90;99.90
12604;DHT22;6367;52.508;13.284;2023-02-21T05:25:19;12.90;99.90
12604;DHT22;6367;52.508;13.284;2023-02-21T05:27:45;12.90;99.90
12604;DHT22;6367;52.508;13.284;2023-02-21T05:30:12;12.90;99.90
12604;DHT22;6367;52.508;13.284;2023-02-21T05:32:39;12.90;99.90
12604;DHT22;6367;52.508;13.284;2023-02-21T05:35:05;12.90;99.90
12604;DHT22;6367;52.508;13.284;2023-02-21T05:37:30;12.90;99.90
12604;DHT22;6367;52.508;13.284;2023-02-21T05:39:56;13.00;99.90
12604;DHT22;6367;52.508;13.284;2023-02-21T05:42:22;13.00;99.90
12604;DHT22;6367;52.508;13.284;2023-02-21T05:44:56;13.00;99.90
12604;DHT22;6367;52.508;13.284;2023-02-21T05:47:22;13.00;99.90
12604;DHT22;6367;52.508;13.284;2023-02-21T05:49:47;13.00;99.90
12604;DHT22;6367;52.508;13.284;2023-02-21T05:52:14;12.90;99.90
12604;DHT22;6367;52.508;13.284;2023-02-21T05:54:40;12.90;99.90
12604;DHT22;6367;52.508;13.284;2023-02-21T05:57:06;12.80;99.90
12604;DHT22;6367;52.508;13.284;2023-02-21T05:59:32;12.90;99.90
12604;DHT22;6367;52.508;13.284;2023-02-21T06:01:58;12.80;99.90
12604;DHT22;6367;52.508;13.284;2023-02-21T06:04:24;12.80;99.90
12604;DHT22;6367;52.508;13.284;2023-02-21T06:06:50;12.80;99.90
12604;DHT22;6367;52.508;13.284;2023-02-21T06:09:17;12.90;99.90
12604;DHT22;6367;52.508;13.284;2023-02-21T06:11:43;12.80;99.90
12604;DHT22;6367;52.508;13.284;2023-02-21T06:14:16;12.80;99.90
12604;DHT22;6367;52.508;13.284;2023-02-21T06:16:42;12.80;99.90
12604;DHT22;6367;52.508;13.284;2023-02-21T06:19:08;12.80;99.90
12604;DHT22;6367;52.508;13.284;2023-02-21T06:21:34;12.90;99.90
12604;DHT22;6367;52.508;13.284;2023-02-21T06:24:00;12.80;99.90
12604;DHT22;6367;52.508;13.284;2023-02-21T06:26:26;12.80;99.90
12604;DHT22;6367;52.508;13.284;2023-02-21T06:28:52;12.80;99.90
12604;DHT22;6367;52.508;13.284;2023-02-21T06:31:19;12.80;99.90
12604;DHT22;6367;52.508;13.284;2023-02-21T06:33:47;12.80;99.90
12604;DHT22;6367;52.508;13.284;2023-02-21T06:36:16;12.70;99.90
12604;DHT22;6367;52.508;13.284;2023-02-21T06:38:46;12.60;99.90
12604;DHT22;6367;52.508;13.284;2023-02-21T06:41:15;12.70;99.90
12604;DHT22;6367;52.508;13.284;2023-02-21T06:43:41;12.70;99.90
12604;DHT22;6367;52.508;13.284;2023-02-21T06:46:07;12.70;99.90
12604;DHT22;6367;52.508;13.284;2023-02-21T06:48:34;12.70;99.90
12604;DHT22;6367;52.508;13.284;2023-02-21T06:51:00;12.70;99.90
12604;DHT22;6367;52.508;13.284;2023-02-21T06:53:26;12.70;99.90
12604;DHT22;6367;52.508;13.284;2023-02-21T06:55:52;12.80;99.90
12604;DHT22;6367;52.508;13.284;2023-02-21T06:58:17;12.70;99.90
12604;DHT22;6367;52.508;13.284;2023-02-21T07:00:43;12.70;99.90
12604;DHT22;6367;52.508;13.284;2023-02-21T07:03:09;13.20;99.90
12604;DHT22;6367;52.508;13.284;2023-02-21T07:05:35;12.70;99.90
12604;DHT22;6367;52.508;13.284;2023-02-21T07:08:03;12.70;99.90
12604;DHT22;6367;52.508;13.284;2023-02-21T07:10:29;12.80;99.90
12604;DHT22;6367;52.508;13.284;2023-02-21T07:13:05;12.60;99.90
12604;DHT22;6367;52.508;13.284;2023-02-21T07:15:31;12.60;99.90
12604;DHT22;6367;52.508;13.284;2023-02-21T07:17:57;12.70;99.90
12604;DHT22;6367;52.508;13.284;2023-02-21T07:20:23;12.70;99.90
12604;DHT22;6367;52.508;13.284;2023-02-21T07:22:49;12.70;99.90
12604;DHT22;6367;52.508;13.284;2023-02-21T07:25:17;12.70;99.90
12604;DHT22;6367;52.508;13.284;2023-02-21T07:27:43;12.70;99.90
12604;DHT22;6367;52.508;13.284;2023-02-21T07:30:16;12.70;99.90
12604;DHT22;6367;52.508;13.284;2023-02-21T07:32:42;12.70;99.90
12604;DHT22;6367;52.508;13.284;2023-02-21T07:35:08;12.70;99.90
12604;DHT22;6367;52.508;13.284;2023-02-21T07:37:34;12.70;99.90
12604;DHT22;6367;52.508;13.284;2023-02-21T07:40:00;12.70;99.90
12604;DHT22;6367;52.508;13.284;2023-02-21T07:42:25;12.70;99.90
12604;DHT22;6367;52.508;13.284;2023-02-21T07:44:55;12.70;99.90
12604;DHT22;6367;52.508;13.284;2023-02-21T07:47:22;12.80;99.90
12604;DHT22;6367;52.508;13.284;2023-02-21T07:49:48;12.70;99.90
12604;DHT22;6367;52.508;13.284;2023-02-21T07:52:17;12.80;99.90
12604;DHT22;6367;52.508;13.284;2023-02-21T07:54:42;12.80;99.90
12604;DHT22;6367;52.508;13.284;2023-02-21T07:57:08;12.80;99.90
12604;DHT22;6367;52.508;13.284;2023-02-21T07:59:37;12.80;99.90
12604;DHT22;6367;52.508;13.284;2023-02-21T08:02:04;12.80;99.90
12604;DHT22;6367;52.508;13.284;2023-02-21T08:04:29;13.40;99.90
12604;DHT22;6367;52.508;13.284;2023-02-21T08:06:59;12.90;99.90
12604;DHT22;6367;52.508;13.284;2023-02-21T08:09:26;12.80;99.90
12604;DHT22;6367;52.508;13.284;2023-02-21T08:11:51;12.80;99.90
12604;DHT22;6367;52.508;13.284;2023-02-21T08:14:17;12.90;99.90
12604;DHT22;6367;52.508;13.284;2023-02-21T08:16:43;13.30;99.90
12604;DHT22;6367;52.508;13.284;2023-02-21T08:19:09;13.00;99.90
12604;DHT22;6367;52.508;13.284;2023-02-21T08:21:35;12.90;99.90
12604;DHT22;6367;52.508;13.284;2023-02-21T08:24:00;12.80;99.90
12604;DHT22;6367;52.508;13.284;2023-02-21T08:26:26;13.00;99.90
12604;DHT22;6367;52.508;13.284;2023-02-21T08:28:52;13.00;99.90
12604;DHT22;6367;52.508;13.284;2023-02-21T08:31:17;12.90;99.90
12604;DHT22;6367;52.508;13.284;2023-02-21T08:33:44;13.00;99.90
12604;DHT22;6367;52.508;13.284;2023-02-21T08:36:10;13.00;99.90
12604;DHT22;6367;52.508;13.284;2023-02-21T08:38:36;13.00;99.90
12604;DHT22;6367;52.508;13.284;2023-02-21T08:41:02;13.10;99.90
12604;DHT22;6367;52.508;13.284;2023-02-21T08:43:30;13.10;99.90
12604;DHT22;6367;52.508;13.284;2023-02-21T08:45:56;13.30;99.90
12604;DHT22;6367;52.508;13.284;2023-02-21T08:48:22;13.30;99.90
12604;DHT22;6367;52.508;13.284;2023-02-21T08:50:48;13.20;99.90
12604;DHT22;6367;52.508;13.284;2023-02-21T08:53:14;13.30;99.90
12604;DHT22;6367;52.508;13.284;2023-02-21T08:55:39;13.30;99.90
12604;DHT22;6367;52.508;13.284;2023-02-21T08:58:05;13.30;99.90
12604;DHT22;6367;52.508;13.284;2023-02-21T09:00:31;13.50;99.90
12604;DHT22;6367;52.508;13.284;2023-02-21T09:02:57;13.30;99.90
12604;DHT22;6367;52.508;13.284;2023-02-21T09:05:29;13.40;99.90
12604;DHT22;6367;52.508;13.284;2023-02-21T09:07:58;13.50;99.90
12604;DHT22;6367;52.508;13.284;2023-02-21T09:10:28;13.60;99.90
12604;DHT22;6367;52.508;13.284;2023-02-21T09:12:54;13.50;99.90
12604;DHT22;6367;52.508;13.284;2023-02-21T09:15:20;13.60;99.90
12604;DHT22;6367;52.508;13.284;2023-02-21T09:17:46;13.50;99.90
12604;DHT22;6367;52.508;13.284;2023-02-21T09:20:17;13.50;99.90
12604;DHT22;6367;52.508;13.284;2023-02-21T09:22:45;13.50;99.90
12604;DHT22;6367;52.508;13.284;2023-02-21T09:25:12;13.50;99.90
12604;DHT22;6367;52.508;13.284;2023-02-21T09:27:39;13.60;99.90
12604;DHT22;6367;52.508;13.284;2023-02-21T09:30:07;13.60;99.90
12604;DHT22;6367;52.508;13.284;2023-02-21T09:32:33;13.60;99.90
12604;DHT22;6367;52.508;13.284;2023-02-21T09:34:59;13.50;99.90
12604;DHT22;6367;52.508;13.284;2023-02-21T09:37:25;13.50;99.90
12604;DHT22;6367;52.508;13.284;2023-02-21T09:39:51;13.50;99.90
12604;DHT22;6367;52.508;13.284;2023-02-21T09:42:18;13.50;99.90
12604;DHT22;6367;52.508;13.284;2023-02-21T09:44:45;13.40;99.90
12604;DHT22;6367;52.508;13.284;2023-02-21T09:47:32;13.40;99.90
12604;DHT22;6367;52.508;13.284;2023-02-21T09:50:04;13.90;99.90
12604;DHT22;6367;52.508;13.284;2023-02-21T09:52:34;13.60;99.90
12604;DHT22;6367;52.508;13.284;2023-02-21T09:55:12;13.60;99.90
12604;DHT22;6367;52.508;13.284;2023-02-21T09:57:39;13.70;99.90
12604;DHT22;6367;52.508;13.284;2023-02-21T10:00:18;13.80;99.90
12604;DHT22;6367;52.508;13.284;2023-02-21T10:12:02;13.80;99.90
12604;DHT22;6367;52.508;13.284;2023-02-21T10:15:00;13.70;99.90
12604;DHT22;6367;52.508;13.284;2023-02-21T10:20:38;13.90;99.90
12604;DHT22;6367;52.508;13.284;2023-02-21T10:23:17;14.00;99.90
12604;DHT22;6367;52.508;13.284;2023-02-21T10:25:44;14.10;99.90
12604;DHT22;6367;52.508;13.284;2023-02-21T10:28:22;14.20;99.90
12604;DHT22;6367;52.508;13.284;2023-02-21T10:30:52;14.30;99.90
12604;DHT22;6367;52.508;13.284;2023-02-21T10:33:19;14.30;99.90
12604;DHT22;6367;52.508;13.284;2023-02-21T10:35:44;14.40;99.90
12604;DHT22;6367;52.508;13.284;2023-02-21T10:38:13;14.40;99.90
12604;DHT22;6367;52.508;13.284;2023-02-21T10:40:54;14.40;99.90
12604;DHT22;6367;52.508;13.284;2023-02-21T10:43:29;14.20;99.90
12604;DHT22;6367;52.508;13.284;2023-02-21T10:48:41;14.20;99.90
12604;DHT22;6367;52.508;13.284;2023-02-21T10:51:16;14.10;99.90
12604;DHT22;6367;52.508;13.284;2023-02-21T10:53:46;14.20;99.90
12604;DHT22;6367;52.508;13.284;2023-02-21T10:58:55;14.20;99.90
12604;DHT22;6367;52.508;13.284;2023-02-21T11:03:54;14.30;99.90
12604;DHT22;6367;52.508;13.284;2023-02-21T11:06:35;14.30;99.90
12604;DHT22;6367;52.508;13.284;2023-02-21T11:09:01;14.30;99.90
12604;DHT22;6367;52.508;13.284;2023-02-21T11:11:33;14.20;99.90
12604;DHT22;6367;52.508;13.284;2023-02-21T11:14:19;14.30;99.90
12604;DHT22;6367;52.508;13.284;2023-02-21T11:17:04;14.30;99.90
12604;DHT22;6367;52.508;13.284;2023-02-21T11:19:51;14.30;99.90
12604;DHT22;6367;52.508;13.284;2023-02-21T11:22:39;14.30;99.90
12604;DHT22;6367;52.508;13.284;2023-02-21T11:25:30;14.30;99.90
12604;DHT22;6367;52.508;13.284;2023-02-21T11:30:25;14.40;99.90
12604;DHT22;6367;52.508;13.284;2023-02-21T11:32:54;14.40;99.90
12604;DHT22;6367;52.508;13.284;2023-02-21T11:35:32;14.50;99.90
12604;DHT22;6367;52.508;13.284;2023-02-21T11:38:35;14.60;99.90
12604;DHT22;6367;52.508;13.284;2023-02-21T11:41:14;14.60;99.90
12604;DHT22;6367;52.508;13.284;2023-02-21T11:43:46;14.70;99.90
12604;DHT22;6367;52.508;13.284;2023-02-21T11:46:31;15.20;99.90
12604;DHT22;6367;52.508;13.284;2023-02-21T11:49:27;14.70;99.80
12604;DHT22;6367;52.508;13.284;2023-02-21T11:52:00;14.60;99.80
12604;DHT22;6367;52.508;13.284;2023-02-21T11:54:28;14.60;99.60
12604;DHT22;6367;52.508;13.284;2023-02-21T11:57:16;14.50;99.40
12604;DHT22;6367;52.508;13.284;2023-02-21T11:59:58;14.60;99.40
12604;DHT22;6367;52.508;13.284;2023-02-21T12:05:17;14.40;99.70
12604;DHT22;6367;52.508;13.284;2023-02-21T12:08:24;14.30;99.80
12604;DHT22;6367;52.508;13.284;2023-02-21T12:11:10;14.20;99.90
12604;DHT22;6367;52.508;13.284;2023-02-21T12:37:10;14.10;99.90
12604;DHT22;6367;52.508;13.284;2023-02-21T12:50:40;14.20;99.90
12604;DHT22;6367;52.508;13.284;2023-02-21T12:53:31;14.40;99.90
12604;DHT22;6367;52.508;13.284;2023-02-21T12:56:04;14.30;99.30
12604;DHT22;6367;52.508;13.284;2023-02-21T12:58:38;14.20;99.40
12604;DHT22;6367;52.508;13.284;2023-02-21T13:01:30;14.20;99.00
12604;DHT22;6367;52.508;13.284;2023-02-21T13:04:37;14.10;99.00
12604;DHT22;6367;52.508;13.284;2023-02-21T13:07:16;14.10;99.20
12604;DHT22;6367;52.508;13.284;2023-02-21T13:12:57;14.10;98.60
12604;DHT22;6367;52.508;13.284;2023-02-21T13:15:27;14.10;98.70
12604;DHT22;6367;52.508;13.284;2023-02-21T13:20:39;14.20;99.10
12604;DHT22;6367;52.508;13.284;2023-02-21T13:26:12;14.30;99.00
12604;DHT22;6367;52.508;13.284;2023-02-21T13:28:44;14.30;98.50
12604;DHT22;6367;52.508;13.284;2023-02-21T13:31:37;14.20;98.20
12604;DHT22;6367;52.508;13.284;2023-02-21T13:34:08;14.20;98.10
12604;DHT22;6367;52.508;13.284;2023-02-21T13:36:41;14.30;98.20
12604;DHT22;6367;52.508;13.284;2023-02-21T13:41:38;14.30;98.40
12604;DHT22;6367;52.508;13.284;2023-02-21T13:44:08;14.40;98.70
12604;DHT22;6367;52.508;13.284;2023-02-21T14:03:27;14.40;97.80
12604;DHT22;6367;52.508;13.284;2023-02-21T14:13:45;14.30;97.80
12604;DHT22;6367;52.508;13.284;2023-02-21T14:21:09;14.40;97.30
12604;DHT22;6367;52.508;13.284;2023-02-21T14:23:41;14.30;97.40
12604;DHT22;6367;52.508;13.284;2023-02-21T14:26:43;14.30;97.40
12604;DHT22;6367;52.508;13.284;2023-02-21T14:29:31;14.40;97.40
12604;DHT22;6367;52.508;13.284;2023-02-21T14:32:20;14.30;97.30
12604;DHT22;6367;52.508;13.284;2023-02-21T14:37:35;14.30;97.20
12604;DHT22;6367;52.508;13.284;2023-02-21T14:56:45;14.00;98.10
12604;DHT22;6367;52.508;13.284;2023-02-21T15:05:20;13.30;97.80
12604;DHT22;6367;52.508;13.284;2023-02-21T15:08:07;14.10;98.20
12604;DHT22;6367;52.508;13.284;2023-02-21T15:10:41;14.10;97.90
12604;DHT22;6367;52.508;13.284;2023-02-21T15:13:30;14.10;97.80
12604;DHT22;6367;52.508;13.284;2023-02-21T15:16:05;13.70;97.40
12604;DHT22;6367;52.508;13.284;2023-02-21T15:18:37;14.10;97.30
12604;DHT22;6367;52.508;13.284;2023-02-21T15:23:42;14.20;96.80
12604;DHT22;6367;52.508;13.284;2023-02-21T15:26:29;14.10;96.90
12604;DHT22;6367;52.508;13.284;2023-02-21T15:31:32;14.00;96.80
12604;DHT22;6367;52.508;13.284;2023-02-21T15:33:58;13.90;97.00
12604;DHT22;6367;52.508;13.284;2023-02-21T15:36:25;13.90;97.30
12604;DHT22;6367;52.508;13.284;2023-02-21T15:39:02;13.80;97.60
12604;DHT22;6367;52.508;13.284;2023-02-21T15:41:41;13.80;97.40
12604;DHT22;6367;52.508;13.284;2023-02-21T15:44:20;13.90;97.50
12604;DHT22;6367;52.508;13.284;2023-02-21T15:47:23;14.00;97.40
12604;DHT22;6367;52.508;13.284;2023-02-21T15:49:59;14.00;97.30
12604;DHT22;6367;52.508;13.284;2023-02-21T15:52:40;14.00;97.20
12604;DHT22;6367;52.508;13.284;2023-02-21T15:55:13;13.90;97.10
12604;DHT22;6367;52.508;13.284;2023-02-21T15:57:39;13.80;97.20
12604;DHT22;6367;52.508;13.284;2023-02-21T16:00:25;13.80;97.40
12604;DHT22;6367;52.508;13.284;2023-02-21T16:02:51;13.80;97.40
12604;DHT22;6367;52.508;13.284;2023-02-21T16:05:26;13.80;97.40
12604;DHT22;6367;52.508;13.284;2023-02-21T16:07:53;13.90;97.30
12604;DHT22;6367;52.508;13.284;2023-02-21T16:10:24;13.90;97.20
12604;DHT22;6367;52.508;13.284;2023-02-21T16:12:59;13.80;97.20
12604;DHT22;6367;52.508;13.284;2023-02-21T16:15:32;13.70;97.10
12604;DHT22;6367;52.508;13.284;2023-02-21T16:18:00;13.70;97.40
12604;DHT22;6367;52.508;13.284;2023-02-21T16:20:33;13.70;97.40
12604;DHT22;6367;52.508;13.284;2023-02-21T16:28:42;13.70;97.30
12604;DHT22;6367;52.508;13.284;2023-02-21T16:31:13;13.70;97.40
12604;DHT22;6367;52.508;13.284;2023-02-21T16:33:40;13.70;97.40
12604;DHT22;6367;52.508;13.284;2023-02-21T16:36:26;14.00;97.60
12604;DHT22;6367;52.508;13.284;2023-02-21T16:38:56;13.60;97.50
12604;DHT22;6367;52.508;13.284;2023-02-21T16:41:22;13.60;97.40
12604;DHT22;6367;52.508;13.284;2023-02-21T16:43:48;13.60;97.50
12604;DHT22;6367;52.508;13.284;2023-02-21T16:46:15;13.60;97.60
12604;DHT22;6367;52.508;13.284;2023-02-21T16:48:47;13.80;97.70
12604;DHT22;6367;52.508;13.284;2023-02-21T16:51:16;13.50;97.60
12604;DHT22;6367;52.508;13.284;2023-02-21T16:53:44;13.50;97.60
12604;DHT22;6367;52.508;13.284;2023-02-21T16:56:12;13.50;97.60
12604;DHT22;6367;52.508;13.284;2023-02-21T16:58:43;13.50;97.60
12604;DHT22;6367;52.508;13.284;2023-02-21T17:01:14;13.50;97.90
12604;DHT22;6367;52.508;13.284;2023-02-21T17:03:40;13.50;97.60
12604;DHT22;6367;52.508;13.284;2023-02-21T17:06:16;13.50;97.60
12604;DHT22;6367;52.508;13.284;2023-02-21T17:08:43;13.40;97.70
12604;DHT22;6367;52.508;13.284;2023-02-21T17:11:08;13.50;97.70
12604;DHT22;6367;52.508;13.284;2023-02-21T17:13:34;13.40;97.70
12604;DHT22;6367;52.508;13.284;2023-02-21T17:16:00;13.40;97.70
12604;DHT22;6367;52.508;13.284;2023-02-21T17:18:25;13.40;97.60
12604;DHT22;6367;52.508;13.284;2023-02-21T17:20:54;13.40;97.70
12604;DHT22;6367;52.508;13.284;2023-02-21T17:23:20;13.40;97.60
12604;DHT22;6367;52.508;13.284;2023-02-21T17:25:49;13.40;97.70
12604;DHT22;6367;52.508;13.284;2023-02-21T17:28:15;13.40;97.50
12604;DHT22;6367;52.508;13.284;2023-02-21T17:30:44;13.40;97.70
12604;DHT22;6367;52.508;13.284;2023-02-21T17:33:10;13.30;97.80
12604;DHT22;6367;52.508;13.284;2023-02-21T17:35:36;13.40;97.90
12604;DHT22;6367;52.508;13.284;2023-02-21T17:38:03;13.40;97.80
12604;DHT22;6367;52.508;13.284;2023-02-21T17:40:29;13.40;97.90
12604;DHT22;6367;52.508;13.284;2023-02-21T17:42:55;13.40;97.80
12604;DHT22;6367;52.508;13.284;2023-02-21T17:45:25;13.40;97.80
12604;DHT22;6367;52.508;13.284;2023-02-21T17:47:51;13.40;97.80
12604;DHT22;6367;52.508;13.284;2023-02-21T17:50:19;13.40;97.70
12604;DHT22;6367;52.508;13.284;2023-02-21T17:52:45;13.40;97.70
12604;DHT22;6367;52.508;13.284;2023-02-21T17:55:22;13.40;97.70
12604;DHT22;6367;52.508;13.284;2023-02-21T17:57:50;13.40;97.80
12604;DHT22;6367;52.508;13.284;2023-02-21T18:00:25;13.40;97.70
12604;DHT22;6367;52.508;13.284;2023-02-21T18:02:57;13.40;97.80
12604;DHT22;6367;52.508;13.284;2023-02-21T18:05:25;13.30;97.80
12604;DHT22;6367;52.508;13.284;2023-02-21T18:07:52;13.30;98.00
12604;DHT22;6367;52.508;13.284;2023-02-21T18:10:25;13.30;98.00
12604;DHT22;6367;52.508;13.284;2023-02-21T18:12:51;13.30;97.90
12604;DHT22;6367;52.508;13.284;2023-02-21T18:15:24;13.40;97.70
12604;DHT22;6367;52.508;13.284;2023-02-21T18:17:52;13.30;97.80
12604;DHT22;6367;52.508;13.284;2023-02-21T18:20:18;13.30;97.80
12604;DHT22;6367;52.508;13.284;2023-02-21T18:22:44;13.30;97.90
12604;DHT22;6367;52.508;13.284;2023-02-21T18:25:11;13.20;97.90
12604;DHT22;6367;52.508;13.284;2023-02-21T18:27:39;13.20;98.00
12604;DHT22;6367;52.508;13.284;2023-02-21T18:30:04;13.30;98.10
12604;DHT22;6367;52.508;13.284;2023-02-21T18:32:30;13.20;98.00
12604;DHT22;6367;52.508;13.284;2023-02-21T18:34:57;13.30;98.10
12604;DHT22;6367;52.508;13.284;2023-02-21T18:37:24;13.30;98.00
12604;DHT22;6367;52.508;13.284;2023-02-21T18:39:54;13.30;98.10
12604;DHT22;6367;52.508;13.284;2023-02-21T18:42:21;13.30;98.20
12604;DHT22;6367;52.508;13.284;2023-02-21T18:44:48;12.90;97.90
12604;DHT22;6367;52.508;13.284;2023-02-21T18:47:18;13.30;98.10
12604;DHT22;6367;52.508;13.284;2023-02-21T18:49:44;13.30;98.00
12604;DHT22;6367;52.508;13.284;2023-02-21T18:52:11;13.30;97.90
12604;DHT22;6367;52.508;13.284;2023-02-21T18:54:48;13.30;97.90